sensor_id;sensor_type;location;lat;lon;timestamp;P1;durP1;ratioP1;P2;durP2;ratioP2
25950;SDS011;13748;52.240;6.002;2023-03-01T00:01:02;14.63;;;9.83;;
25950;SDS011;13748;52.240;6.002;2023-03-01T00:03:31;18.60;;;10.10;;
25950;SDS011;13748;52.240;6.002;2023-03-01T00:05:59;17.17;;;10.27;;
25950;SDS011;13748;52.240;6.002;2023-03-01T00:08:26;16.30;;;10.10;;
25950;SDS011;13748;52.240;6.002;2023-03-01T00:13:52;16.80;;;10.93;;
25950;SDS011;13748;52.240;6.002;2023-03-01T00:16:21;17.00;;;10.63;;
25950;SDS011;13748;52.240;6.002;2023-03-01T00:18:50;15.23;;;10.10;;
25950;SDS011;13748;52.240;6.002;2023-03-01T00:21:17;17.30;;;10.50;;
25950;SDS011;13748;52.240;6.002;2023-03-01T00:23:43;15.70;;;10.27;;
25950;SDS011;13748;52.240;6.002;2023-03-01T00:26:12;17.43;;;10.87;;
25950;SDS011;13748;52.240;6.002;2023-03-01T00:28:39;18.37;;;11.20;;
25950;SDS011;13748;52.240;6.002;2023-03-01T00:31:08;17.13;;;11.00;;
25950;SDS011;13748;52.240;6.002;2023-03-01T00:33:40;15.20;;;10.43;;
25950;SDS011;13748;52.240;6.002;2023-03-01T00:36:08;15.73;;;10.20;;
25950;SDS011;13748;52.240;6.002;2023-03-01T00:38:37;18.57;;;10.37;;
25950;SDS011;13748;52.240;6.002;2023-03-01T00:41:12;15.60;;;10.47;;
25950;SDS011;13748;52.240;6.002;2023-03-01T00:43:40;15.60;;;10.20;;
25950;SDS011;13748;52.240;6.002;2023-03-01T00:46:09;16.00;;;10.37;;
25950;SDS011;13748;52.240;6.002;2023-03-01T00:48:41;14.57;;;10.30;;
25950;SDS011;13748;52.240;6.002;2023-03-01T00:51:09;16.77;;;10.13;;
25950;SDS011;13748;52.240;6.002;2023-03-01T00:53:40;14.90;;;9.87;;
25950;SDS011;13748;52.240;6.002;2023-03-01T00:56:08;15.83;;;9.97;;
25950;SDS011;13748;52.240;6.002;2023-03-01T00:58:37;15.53;;;9.83;;
25950;SDS011;13748;52.240;6.002;2023-03-01T01:01:11;14.60;;;9.90;;
25950;SDS011;13748;52.240;6.002;2023-03-01T01:06:27;16.43;;;9.50;;
25950;SDS011;13748;52.240;6.002;2023-03-01T01:08:56;16.90;;;9.97;;
25950;SDS011;13748;52.240;6.002;2023-03-01T01:11:24;16.60;;;10.33;;
25950;SDS011;13748;52.240;6.002;2023-03-01T01:13:52;13.67;;;9.30;;
25950;SDS011;13748;52.240;6.002;2023-03-01T01:16:20;15.10;;;10.20;;
25950;SDS011;13748;52.240;6.002;2023-03-01T01:18:49;16.17;;;9.80;;
25950;SDS011;13748;52.240;6.002;2023-03-01T01:21:16;15.40;;;9.20;;
25950;SDS011;13748;52.240;6.002;2023-03-01T01:23:47;17.33;;;9.47;;
25950;SDS011;13748;52.240;6.002;2023-03-01T01:26:21;15.60;;;9.37;;
25950;SDS011;13748;52.240;6.002;2023-03-01T01:28:53;13.43;;;9.67;;
25950;SDS011;13748;52.240;6.002;2023-03-01T01:31:20;18.30;;;9.50;;
25950;SDS011;13748;52.240;6.002;2023-03-01T01:33:50;15.23;;;9.50;;
25950;SDS011;13748;52.240;6.002;2023-03-01T01:36:17;14.20;;;9.23;;
25950;SDS011;13748;52.240;6.002;2023-03-01T01:38:44;12.60;;;8.83;;
25950;SDS011;13748;52.240;6.002;2023-03-01T01:41:11;17.53;;;9.23;;
25950;SDS011;13748;52.240;6.002;2023-03-01T01:43:40;16.30;;;9.17;;
25950;SDS011;13748;52.240;6.002;2023-03-01T01:48:56;16.27;;;9.87;;
25950;SDS011;13748;52.240;6.002;2023-03-01T01:51:30;16.57;;;9.97;;
25950;SDS011;13748;52.240;6.002;2023-03-01T01:54:26;13.80;;;9.47;;
25950;SDS011;13748;52.240;6.002;2023-03-01T01:56:59;14.10;;;8.97;;
25950;SDS011;13748;52.240;6.002;2023-03-01T01:59:30;13.77;;;9.10;;
25950;SDS011;13748;52.240;6.002;2023-03-01T02:01:59;15.27;;;9.97;;
25950;SDS011;13748;52.240;6.002;2023-03-01T02:04:30;17.80;;;9.83;;
25950;SDS011;13748;52.240;6.002;2023-03-01T02:07:01;19.73;;;9.77;;
25950;SDS011;13748;52.240;6.002;2023-03-01T02:09:41;16.50;;;10.30;;
25950;SDS011;13748;52.240;6.002;2023-03-01T02:12:11;16.03;;;9.73;;
25950;SDS011;13748;52.240;6.002;2023-03-01T02:14:40;17.20;;;9.67;;
25950;SDS011;13748;52.240;6.002;2023-03-01T02:17:07;14.50;;;9.03;;
25950;SDS011;13748;52.240;6.002;2023-03-01T02:19:56;14.77;;;9.50;;
25950;SDS011;13748;52.240;6.002;2023-03-01T02:22:53;13.40;;;9.23;;
25950;SDS011;13748;52.240;6.002;2023-03-01T02:25:33;16.27;;;9.07;;
25950;SDS011;13748;52.240;6.002;2023-03-01T02:30:45;13.90;;;9.07;;
25950;SDS011;13748;52.240;6.002;2023-03-01T02:33:34;16.73;;;9.37;;
25950;SDS011;13748;52.240;6.002;2023-03-01T02:36:10;11.70;;;8.33;;
25950;SDS011;13748;52.240;6.002;2023-03-01T02:38:41;12.87;;;8.57;;
25950;SDS011;13748;52.240;6.002;2023-03-01T02:41:09;14.63;;;9.33;;
25950;SDS011;13748;52.240;6.002;2023-03-01T02:43:39;11.70;;;8.47;;
25950;SDS011;13748;52.240;6.002;2023-03-01T02:46:14;14.03;;;9.07;;
25950;SDS011;13748;52.240;6.002;2023-03-01T02:51:48;11.77;;;8.37;;
25950;SDS011;13748;52.240;6.002;2023-03-01T02:56:52;15.23;;;8.70;;
25950;SDS011;13748;52.240;6.002;2023-03-01T02:59:20;15.47;;;9.57;;
25950;SDS011;13748;52.240;6.002;2023-03-01T03:01:48;14.87;;;9.23;;
25950;SDS011;13748;52.240;6.002;2023-03-01T03:04:16;14.80;;;9.03;;
25950;SDS011;13748;52.240;6.002;2023-03-01T03:06:47;14.77;;;9.57;;
25950;SDS011;13748;52.240;6.002;2023-03-01T03:09:16;15.73;;;9.17;;
25950;SDS011;13748;52.240;6.002;2023-03-01T03:11:43;15.90;;;9.57;;
25950;SDS011;13748;52.240;6.002;2023-03-01T03:14:11;16.73;;;9.60;;
25950;SDS011;13748;52.240;6.002;2023-03-01T03:16:43;15.87;;;10.10;;
25950;SDS011;13748;52.240;6.002;2023-03-01T03:19:11;16.77;;;8.70;;
25950;SDS011;13748;52.240;6.002;2023-03-01T03:21:38;17.20;;;9.90;;
25950;SDS011;13748;52.240;6.002;2023-03-01T03:24:05;15.97;;;9.67;;
25950;SDS011;13748;52.240;6.002;2023-03-01T03:26:32;13.33;;;9.43;;
25950;SDS011;13748;52.240;6.002;2023-03-01T03:28:59;18.60;;;10.67;;
25950;SDS011;13748;52.240;6.002;2023-03-01T03:31:25;15.43;;;9.90;;
25950;SDS011;13748;52.240;6.002;2023-03-01T03:33:53;16.07;;;9.90;;
25950;SDS011;13748;52.240;6.002;2023-03-01T03:36:21;16.33;;;8.90;;
25950;SDS011;13748;52.240;6.002;2023-03-01T03:38:49;15.80;;;9.17;;
25950;SDS011;13748;52.240;6.002;2023-03-01T03:41:16;21.57;;;10.10;;
25950;SDS011;13748;52.240;6.002;2023-03-01T03:43:43;19.27;;;11.33;;
25950;SDS011;13748;52.240;6.002;2023-03-01T03:46:11;18.17;;;10.30;;
25950;SDS011;13748;52.240;6.002;2023-03-01T03:48:41;16.17;;;9.60;;
25950;SDS011;13748;52.240;6.002;2023-03-01T03:51:11;17.20;;;9.90;;
25950;SDS011;13748;52.240;6.002;2023-03-01T03:53:42;16.30;;;10.40;;
25950;SDS011;13748;52.240;6.002;2023-03-01T03:56:09;17.20;;;9.37;;
25950;SDS011;13748;52.240;6.002;2023-03-01T03:58:37;14.10;;;9.33;;
25950;SDS011;13748;52.240;6.002;2023-03-01T04:01:04;14.53;;;10.10;;
25950;SDS011;13748;52.240;6.002;2023-03-01T04:03:32;17.60;;;10.37;;
25950;SDS011;13748;52.240;6.002;2023-03-01T04:06:01;16.13;;;9.10;;
25950;SDS011;13748;52.240;6.002;2023-03-01T04:08:29;15.17;;;9.57;;
25950;SDS011;13748;52.240;6.002;2023-03-01T04:10:57;14.77;;;9.47;;
25950;SDS011;13748;52.240;6.002;2023-03-01T04:13:46;13.23;;;9.23;;
25950;SDS011;13748;52.240;6.002;2023-03-01T04:16:13;17.63;;;9.93;;
25950;SDS011;13748;52.240;6.002;2023-03-01T04:18:40;17.30;;;9.90;;
25950;SDS011;13748;52.240;6.002;2023-03-01T04:21:07;18.13;;;10.67;;
25950;SDS011;13748;52.240;6.002;2023-03-01T04:23:33;17.23;;;10.10;;
25950;SDS011;13748;52.240;6.002;2023-03-01T04:26:01;17.80;;;10.17;;
25950;SDS011;13748;52.240;6.002;2023-03-01T04:31:02;23.33;;;11.33;;
25950;SDS011;13748;52.240;6.002;2023-03-01T04:33:42;18.73;;;10.83;;
25950;SDS011;13748;52.240;6.002;2023-03-01T04:36:10;20.33;;;11.53;;
25950;SDS011;13748;52.240;6.002;2023-03-01T04:38:39;19.13;;;10.60;;
25950;SDS011;13748;52.240;6.002;2023-03-01T04:41:07;19.73;;;10.90;;
25950;SDS011;13748;52.240;6.002;2023-03-01T04:43:36;18.33;;;10.77;;
25950;SDS011;13748;52.240;6.002;2023-03-01T04:46:16;17.47;;;11.43;;
25950;SDS011;13748;52.240;6.002;2023-03-01T04:48:45;19.57;;;11.47;;
25950;SDS011;13748;52.240;6.002;2023-03-01T04:51:13;23.27;;;12.57;;
25950;SDS011;13748;52.240;6.002;2023-03-01T04:53:41;26.17;;;13.47;;
25950;SDS011;13748;52.240;6.002;2023-03-01T04:56:09;24.17;;;11.70;;
25950;SDS011;13748;52.240;6.002;2023-03-01T04:58:36;23.70;;;12.30;;
25950;SDS011;13748;52.240;6.002;2023-03-01T05:01:07;20.63;;;12.07;;
25950;SDS011;13748;52.240;6.002;2023-03-01T05:03:42;23.33;;;12.17;;
25950;SDS011;13748;52.240;6.002;2023-03-01T05:06:19;20.53;;;11.70;;
25950;SDS011;13748;52.240;6.002;2023-03-01T05:08:46;24.90;;;12.13;;
25950;SDS011;13748;52.240;6.002;2023-03-01T05:11:13;18.90;;;11.33;;
25950;SDS011;13748;52.240;6.002;2023-03-01T05:13:41;20.80;;;12.03;;
25950;SDS011;13748;52.240;6.002;2023-03-01T05:16:08;21.27;;;11.60;;
25950;SDS011;13748;52.240;6.002;2023-03-01T05:18:38;18.77;;;12.00;;
25950;SDS011;13748;52.240;6.002;2023-03-01T05:21:09;23.03;;;11.73;;
25950;SDS011;13748;52.240;6.002;2023-03-01T05:23:37;25.03;;;12.80;;
25950;SDS011;13748;52.240;6.002;2023-03-01T05:26:05;23.90;;;12.43;;
25950;SDS011;13748;52.240;6.002;2023-03-01T05:28:51;22.43;;;12.27;;
25950;SDS011;13748;52.240;6.002;2023-03-01T05:31:17;18.47;;;12.00;;
25950;SDS011;13748;52.240;6.002;2023-03-01T05:33:44;21.50;;;12.23;;
25950;SDS011;13748;52.240;6.002;2023-03-01T05:36:11;20.27;;;11.73;;
25950;SDS011;13748;52.240;6.002;2023-03-01T05:38:38;24.90;;;13.10;;
25950;SDS011;13748;52.240;6.002;2023-03-01T05:41:05;25.80;;;13.27;;
25950;SDS011;13748;52.240;6.002;2023-03-01T05:46:11;29.07;;;14.50;;
25950;SDS011;13748;52.240;6.002;2023-03-01T05:48:39;28.23;;;13.90;;
25950;SDS011;13748;52.240;6.002;2023-03-01T05:51:06;23.67;;;13.53;;
25950;SDS011;13748;52.240;6.002;2023-03-01T05:53:33;24.93;;;13.50;;
25950;SDS011;13748;52.240;6.002;2023-03-01T05:56:02;28.97;;;14.00;;
25950;SDS011;13748;52.240;6.002;2023-03-01T05:58:30;26.73;;;14.43;;
25950;SDS011;13748;52.240;6.002;2023-03-01T06:00:56;27.67;;;13.93;;
25950;SDS011;13748;52.240;6.002;2023-03-01T06:03:23;23.30;;;12.97;;
25950;SDS011;13748;52.240;6.002;2023-03-01T06:05:56;28.77;;;14.53;;
25950;SDS011;13748;52.240;6.002;2023-03-01T06:08:23;30.90;;;15.37;;
25950;SDS011;13748;52.240;6.002;2023-03-01T06:10:52;28.80;;;15.20;;
25950;SDS011;13748;52.240;6.002;2023-03-01T06:13:19;36.03;;;15.50;;
25950;SDS011;13748;52.240;6.002;2023-03-01T06:15:46;27.13;;;15.63;;
25950;SDS011;13748;52.240;6.002;2023-03-01T06:18:13;28.93;;;15.53;;
25950;SDS011;13748;52.240;6.002;2023-03-01T06:20:39;30.73;;;14.70;;
25950;SDS011;13748;52.240;6.002;2023-03-01T06:23:06;27.60;;;14.97;;
25950;SDS011;13748;52.240;6.002;2023-03-01T06:25:34;25.30;;;14.73;;
25950;SDS011;13748;52.240;6.002;2023-03-01T06:28:01;29.60;;;15.10;;
25950;SDS011;13748;52.240;6.002;2023-03-01T06:30:28;32.57;;;15.87;;
25950;SDS011;13748;52.240;6.002;2023-03-01T06:32:55;27.73;;;15.47;;
25950;SDS011;13748;52.240;6.002;2023-03-01T06:35:26;32.80;;;15.20;;
25950;SDS011;13748;52.240;6.002;2023-03-01T06:37:56;29.27;;;14.63;;
25950;SDS011;13748;52.240;6.002;2023-03-01T06:40:24;29.00;;;15.10;;
25950;SDS011;13748;52.240;6.002;2023-03-01T06:42:51;35.00;;;16.27;;
25950;SDS011;13748;52.240;6.002;2023-03-01T06:45:19;29.40;;;14.80;;
25950;SDS011;13748;52.240;6.002;2023-03-01T06:47:46;33.60;;;16.03;;
25950;SDS011;13748;52.240;6.002;2023-03-01T06:50:14;37.27;;;16.67;;
25950;SDS011;13748;52.240;6.002;2023-03-01T06:52:41;34.63;;;15.73;;
25950;SDS011;13748;52.240;6.002;2023-03-01T06:55:10;33.40;;;16.47;;
25950;SDS011;13748;52.240;6.002;2023-03-01T06:57:37;34.93;;;17.43;;
25950;SDS011;13748;52.240;6.002;2023-03-01T07:00:04;36.30;;;18.50;;
25950;SDS011;13748;52.240;6.002;2023-03-01T07:02:32;42.43;;;18.10;;
25950;SDS011;13748;52.240;6.002;2023-03-01T07:04:58;35.80;;;18.30;;
25950;SDS011;13748;52.240;6.002;2023-03-01T07:07:25;43.30;;;21.03;;
25950;SDS011;13748;52.240;6.002;2023-03-01T07:09:52;44.97;;;21.90;;
25950;SDS011;13748;52.240;6.002;2023-03-01T07:12:19;48.73;;;23.17;;
25950;SDS011;13748;52.240;6.002;2023-03-01T07:14:46;64.53;;;27.53;;
25950;SDS011;13748;52.240;6.002;2023-03-01T07:17:12;65.07;;;25.90;;
25950;SDS011;13748;52.240;6.002;2023-03-01T07:19:39;51.77;;;24.17;;
25950;SDS011;13748;52.240;6.002;2023-03-01T07:22:06;45.10;;;21.47;;
25950;SDS011;13748;52.240;6.002;2023-03-01T07:24:34;32.67;;;18.43;;
25950;SDS011;13748;52.240;6.002;2023-03-01T07:27:01;26.83;;;15.63;;
25950;SDS011;13748;52.240;6.002;2023-03-01T07:29:27;27.27;;;14.70;;
25950;SDS011;13748;52.240;6.002;2023-03-01T07:31:54;25.43;;;14.97;;
25950;SDS011;13748;52.240;6.002;2023-03-01T07:34:21;29.43;;;16.90;;
25950;SDS011;13748;52.240;6.002;2023-03-01T07:36:48;27.97;;;16.47;;
25950;SDS011;13748;52.240;6.002;2023-03-01T07:39:15;28.93;;;16.10;;
25950;SDS011;13748;52.240;6.002;2023-03-01T07:41:44;31.37;;;15.80;;
25950;SDS011;13748;52.240;6.002;2023-03-01T07:44:11;31.00;;;16.10;;
25950;SDS011;13748;52.240;6.002;2023-03-01T07:46:38;31.07;;;16.20;;
25950;SDS011;13748;52.240;6.002;2023-03-01T07:49:05;29.17;;;17.43;;
25950;SDS011;13748;52.240;6.002;2023-03-01T07:51:34;30.67;;;17.93;;
25950;SDS011;13748;52.240;6.002;2023-03-01T07:54:00;31.80;;;17.43;;
25950;SDS011;13748;52.240;6.002;2023-03-01T07:56:27;37.40;;;20.53;;
25950;SDS011;13748;52.240;6.002;2023-03-01T07:58:55;33.83;;;18.77;;
25950;SDS011;13748;52.240;6.002;2023-03-01T08:01:22;30.03;;;17.50;;
25950;SDS011;13748;52.240;6.002;2023-03-01T08:03:49;30.97;;;18.57;;
25950;SDS011;13748;52.240;6.002;2023-03-01T08:06:16;35.00;;;18.87;;
25950;SDS011;13748;52.240;6.002;2023-03-01T08:08:44;28.67;;;17.93;;
25950;SDS011;13748;52.240;6.002;2023-03-01T08:11:11;37.00;;;19.07;;
25950;SDS011;13748;52.240;6.002;2023-03-01T08:13:40;39.27;;;19.57;;
25950;SDS011;13748;52.240;6.002;2023-03-01T08:16:09;36.63;;;19.73;;
25950;SDS011;13748;52.240;6.002;2023-03-01T08:18:38;32.77;;;18.40;;
25950;SDS011;13748;52.240;6.002;2023-03-01T08:21:15;34.30;;;20.30;;
25950;SDS011;13748;52.240;6.002;2023-03-01T08:23:44;38.87;;;18.90;;
25950;SDS011;13748;52.240;6.002;2023-03-01T08:26:18;32.87;;;18.77;;
25950;SDS011;13748;52.240;6.002;2023-03-01T08:28:47;37.60;;;20.33;;
25950;SDS011;13748;52.240;6.002;2023-03-01T08:31:16;35.20;;;18.93;;
25950;SDS011;13748;52.240;6.002;2023-03-01T08:33:45;36.43;;;19.87;;
25950;SDS011;13748;52.240;6.002;2023-03-01T08:36:17;38.97;;;19.17;;
25950;SDS011;13748;52.240;6.002;2023-03-01T08:38:45;35.53;;;20.10;;
25950;SDS011;13748;52.240;6.002;2023-03-01T08:41:12;36.53;;;19.93;;
25950;SDS011;13748;52.240;6.002;2023-03-01T08:43:39;33.37;;;19.50;;
25950;SDS011;13748;52.240;6.002;2023-03-01T08:46:06;32.20;;;18.40;;
25950;SDS011;13748;52.240;6.002;2023-03-01T08:48:33;31.03;;;19.30;;
25950;SDS011;13748;52.240;6.002;2023-03-01T08:51:10;35.43;;;19.33;;
25950;SDS011;13748;52.240;6.002;2023-03-01T08:53:45;33.07;;;19.27;;
25950;SDS011;13748;52.240;6.002;2023-03-01T08:56:12;34.83;;;19.37;;
25950;SDS011;13748;52.240;6.002;2023-03-01T08:58:39;35.83;;;20.23;;
25950;SDS011;13748;52.240;6.002;2023-03-01T09:01:09;35.33;;;20.47;;
25950;SDS011;13748;52.240;6.002;2023-03-01T09:03:38;32.83;;;19.97;;
25950;SDS011;13748;52.240;6.002;2023-03-01T09:06:05;32.23;;;18.07;;
25950;SDS011;13748;52.240;6.002;2023-03-01T09:08:40;36.70;;;19.10;;
25950;SDS011;13748;52.240;6.002;2023-03-01T09:11:09;31.73;;;19.40;;
25950;SDS011;13748;52.240;6.002;2023-03-01T09:13:38;33.13;;;19.40;;
25950;SDS011;13748;52.240;6.002;2023-03-01T09:16:07;29.13;;;17.67;;
25950;SDS011;13748;52.240;6.002;2023-03-01T09:18:34;31.00;;;17.83;;
25950;SDS011;13748;52.240;6.002;2023-03-01T09:21:09;33.30;;;18.17;;
25950;SDS011;13748;52.240;6.002;2023-03-01T09:23:38;28.60;;;16.67;;
25950;SDS011;13748;52.240;6.002;2023-03-01T09:26:13;39.47;;;18.63;;
25950;SDS011;13748;52.240;6.002;2023-03-01T09:28:45;29.77;;;16.40;;
25950;SDS011;13748;52.240;6.002;2023-03-01T09:31:13;27.57;;;16.30;;
25950;SDS011;13748;52.240;6.002;2023-03-01T09:33:41;26.50;;;15.57;;
25950;SDS011;13748;52.240;6.002;2023-03-01T09:36:12;20.40;;;13.67;;
25950;SDS011;13748;52.240;6.002;2023-03-01T09:38:40;28.33;;;14.10;;
25950;SDS011;13748;52.240;6.002;2023-03-01T09:41:10;21.97;;;14.00;;
25950;SDS011;13748;52.240;6.002;2023-03-01T09:43:48;25.73;;;13.57;;
25950;SDS011;13748;52.240;6.002;2023-03-01T09:46:22;21.43;;;12.47;;
25950;SDS011;13748;52.240;6.002;2023-03-01T09:48:57;16.10;;;12.17;;
25950;SDS011;13748;52.240;6.002;2023-03-01T09:51:31;17.27;;;11.57;;
25950;SDS011;13748;52.240;6.002;2023-03-01T09:54:00;20.10;;;11.80;;
25950;SDS011;13748;52.240;6.002;2023-03-01T09:59:13;10.23;;;7.20;;
25950;SDS011;13748;52.240;6.002;2023-03-01T10:04:51;9.27;;;5.63;;
25950;SDS011;13748;52.240;6.002;2023-03-01T10:10:27;10.40;;;6.10;;
25950;SDS011;13748;52.240;6.002;2023-03-01T10:12:58;15.83;;;5.33;;
25950;SDS011;13748;52.240;6.002;2023-03-01T10:15:34;10.23;;;5.53;;
25950;SDS011;13748;52.240;6.002;2023-03-01T10:18:10;9.30;;;5.50;;
25950;SDS011;13748;52.240;6.002;2023-03-01T10:20:46;9.53;;;5.20;;
25950;SDS011;13748;52.240;6.002;2023-03-01T10:23:21;11.90;;;5.43;;
25950;SDS011;13748;52.240;6.002;2023-03-01T10:28:22;16.17;;;5.73;;
25950;SDS011;13748;52.240;6.002;2023-03-01T10:30:56;9.07;;;5.50;;
25950;SDS011;13748;52.240;6.002;2023-03-01T10:33:26;8.23;;;5.30;;
25950;SDS011;13748;52.240;6.002;2023-03-01T10:35:56;6.57;;;5.27;;
25950;SDS011;13748;52.240;6.002;2023-03-01T10:38:23;10.50;;;6.03;;
25950;SDS011;13748;52.240;6.002;2023-03-01T10:40:51;11.57;;;5.93;;
25950;SDS011;13748;52.240;6.002;2023-03-01T10:51:49;10.73;;;6.23;;
25950;SDS011;13748;52.240;6.002;2023-03-01T10:54:18;12.13;;;6.57;;
25950;SDS011;13748;52.240;6.002;2023-03-01T10:56:54;8.53;;;5.10;;
25950;SDS011;13748;52.240;6.002;2023-03-01T10:59:27;11.73;;;6.10;;
25950;SDS011;13748;52.240;6.002;2023-03-01T11:02:17;8.70;;;5.30;;
25950;SDS011;13748;52.240;6.002;2023-03-01T11:07:28;7.10;;;4.50;;
25950;SDS011;13748;52.240;6.002;2023-03-01T11:09:55;9.60;;;5.17;;
25950;SDS011;13748;52.240;6.002;2023-03-01T11:12:22;7.40;;;5.03;;
25950;SDS011;13748;52.240;6.002;2023-03-01T11:14:52;8.40;;;4.60;;
25950;SDS011;13748;52.240;6.002;2023-03-01T11:22:44;8.30;;;4.73;;
25950;SDS011;13748;52.240;6.002;2023-03-01T11:25:27;13.20;;;5.63;;
25950;SDS011;13748;52.240;6.002;2023-03-01T11:27:59;8.33;;;4.90;;
25950;SDS011;13748;52.240;6.002;2023-03-01T11:30:34;8.07;;;5.00;;
25950;SDS011;13748;52.240;6.002;2023-03-01T11:33:12;6.33;;;4.20;;
25950;SDS011;13748;52.240;6.002;2023-03-01T11:35:49;22.40;;;5.40;;
25950;SDS011;13748;52.240;6.002;2023-03-01T11:38:24;8.60;;;4.53;;
25950;SDS011;13748;52.240;6.002;2023-03-01T11:40:58;16.20;;;4.53;;
25950;SDS011;13748;52.240;6.002;2023-03-01T11:51:55;6.93;;;5.03;;
25950;SDS011;13748;52.240;6.002;2023-03-01T11:54:38;6.40;;;4.43;;
25950;SDS011;13748;52.240;6.002;2023-03-01T12:05:56;9.17;;;4.77;;
25950;SDS011;13748;52.240;6.002;2023-03-01T12:08:40;7.50;;;4.50;;
25950;SDS011;13748;52.240;6.002;2023-03-01T12:14:23;6.07;;;4.27;;
25950;SDS011;13748;52.240;6.002;2023-03-01T12:17:00;6.10;;;4.17;;
25950;SDS011;13748;52.240;6.002;2023-03-01T12:23:02;6.40;;;4.10;;
25950;SDS011;13748;52.240;6.002;2023-03-01T12:34:18;9.13;;;4.90;;
25950;SDS011;13748;52.240;6.002;2023-03-01T12:51:31;8.80;;;5.07;;
25950;SDS011;13748;52.240;6.002;2023-03-01T12:54:02;7.37;;;4.43;;
25950;SDS011;13748;52.240;6.002;2023-03-01T12:56:41;6.90;;;5.37;;
25950;SDS011;13748;52.240;6.002;2023-03-01T12:59:15;10.40;;;5.43;;
25950;SDS011;13748;52.240;6.002;2023-03-01T13:04:51;9.50;;;4.93;;
25950;SDS011;13748;52.240;6.002;2023-03-01T13:07:25;7.30;;;4.40;;
25950;SDS011;13748;52.240;6.002;2023-03-01T13:13:00;7.93;;;5.40;;
25950;SDS011;13748;52.240;6.002;2023-03-01T13:15:30;5.70;;;4.17;;
25950;SDS011;13748;52.240;6.002;2023-03-01T13:33:47;6.70;;;4.70;;
25950;SDS011;13748;52.240;6.002;2023-03-01T13:37:00;8.67;;;5.03;;
25950;SDS011;13748;52.240;6.002;2023-03-01T13:39:03;6.97;;;4.40;;
25950;SDS011;13748;52.240;6.002;2023-03-01T13:41:53;6.33;;;4.10;;
25950;SDS011;13748;52.240;6.002;2023-03-01T13:44:24;6.23;;;4.33;;
25950;SDS011;13748;52.240;6.002;2023-03-01T13:49:41;7.77;;;4.80;;
25950;SDS011;13748;52.240;6.002;2023-03-01T13:55:03;8.77;;;4.80;;
25950;SDS011;13748;52.240;6.002;2023-03-01T13:57:40;7.37;;;4.43;;
25950;SDS011;13748;52.240;6.002;2023-03-01T14:05:32;7.53;;;4.40;;
25950;SDS011;13748;52.240;6.002;2023-03-01T14:07:59;7.93;;;4.83;;
25950;SDS011;13748;52.240;6.002;2023-03-01T14:10:32;6.73;;;4.60;;
25950;SDS011;13748;52.240;6.002;2023-03-01T14:13:19;7.80;;;4.80;;
25950;SDS011;13748;52.240;6.002;2023-03-01T14:16:15;6.00;;;3.87;;
25950;SDS011;13748;52.240;6.002;2023-03-01T14:18:52;5.93;;;4.83;;
25950;SDS011;13748;52.240;6.002;2023-03-01T14:21:33;10.17;;;4.63;;
25950;SDS011;13748;52.240;6.002;2023-03-01T14:24:02;6.10;;;4.43;;
25950;SDS011;13748;52.240;6.002;2023-03-01T14:26:29;12.93;;;4.87;;
25950;SDS011;13748;52.240;6.002;2023-03-01T14:28:58;6.70;;;4.40;;
25950;SDS011;13748;52.240;6.002;2023-03-01T14:31:32;10.97;;;5.10;;
25950;SDS011;13748;52.240;6.002;2023-03-01T14:34:19;8.47;;;4.97;;
25950;SDS011;13748;52.240;6.002;2023-03-01T14:36:48;6.13;;;5.30;;
25950;SDS011;13748;52.240;6.002;2023-03-01T14:39:23;5.90;;;4.60;;
25950;SDS011;13748;52.240;6.002;2023-03-01T14:41:52;9.07;;;4.30;;
25950;SDS011;13748;52.240;6.002;2023-03-01T14:44:20;7.67;;;5.33;;
25950;SDS011;13748;52.240;6.002;2023-03-01T14:46:51;6.57;;;4.83;;
25950;SDS011;13748;52.240;6.002;2023-03-01T14:49:21;8.53;;;5.17;;
25950;SDS011;13748;52.240;6.002;2023-03-01T14:51:52;7.63;;;4.97;;
25950;SDS011;13748;52.240;6.002;2023-03-01T14:56:52;7.93;;;4.63;;
25950;SDS011;13748;52.240;6.002;2023-03-01T14:59:23;29.33;;;6.30;;
25950;SDS011;13748;52.240;6.002;2023-03-01T15:01:50;44.87;;;7.13;;
25950;SDS011;13748;52.240;6.002;2023-03-01T15:04:19;37.43;;;6.00;;
25950;SDS011;13748;52.240;6.002;2023-03-01T15:06:52;8.13;;;4.77;;
25950;SDS011;13748;52.240;6.002;2023-03-01T15:09:21;7.73;;;5.07;;
25950;SDS011;13748;52.240;6.002;2023-03-01T15:11:49;6.27;;;4.80;;
25950;SDS011;13748;52.240;6.002;2023-03-01T15:17:33;9.87;;;5.13;;
25950;SDS011;13748;52.240;6.002;2023-03-01T15:20:03;7.53;;;5.07;;
25950;SDS011;13748;52.240;6.002;2023-03-01T15:22:33;6.23;;;4.67;;
25950;SDS011;13748;52.240;6.002;2023-03-01T15:25:01;12.63;;;5.53;;
25950;SDS011;13748;52.240;6.002;2023-03-01T15:27:27;9.67;;;5.00;;
25950;SDS011;13748;52.240;6.002;2023-03-01T15:29:55;6.20;;;4.67;;
25950;SDS011;13748;52.240;6.002;2023-03-01T15:32:32;10.13;;;5.03;;
25950;SDS011;13748;52.240;6.002;2023-03-01T15:35:01;5.53;;;4.53;;
25950;SDS011;13748;52.240;6.002;2023-03-01T15:38:24;6.80;;;4.40;;
25950;SDS011;13748;52.240;6.002;2023-03-01T15:41:19;7.37;;;4.90;;
25950;SDS011;13748;52.240;6.002;2023-03-01T15:43:52;6.77;;;4.70;;
25950;SDS011;13748;52.240;6.002;2023-03-01T15:46:24;6.87;;;4.90;;
25950;SDS011;13748;52.240;6.002;2023-03-01T15:49:05;7.87;;;5.27;;
25950;SDS011;13748;52.240;6.002;2023-03-01T15:51:51;6.70;;;4.80;;
25950;SDS011;13748;52.240;6.002;2023-03-01T15:54:22;6.60;;;5.00;;
25950;SDS011;13748;52.240;6.002;2023-03-01T15:56:51;7.90;;;5.40;;
25950;SDS011;13748;52.240;6.002;2023-03-01T15:59:18;7.10;;;5.30;;
25950;SDS011;13748;52.240;6.002;2023-03-01T16:01:45;12.23;;;4.63;;
25950;SDS011;13748;52.240;6.002;2023-03-01T16:04:16;6.87;;;5.10;;
25950;SDS011;13748;52.240;6.002;2023-03-01T16:06:49;8.67;;;5.20;;
25950;SDS011;13748;52.240;6.002;2023-03-01T16:09:23;7.03;;;4.90;;
25950;SDS011;13748;52.240;6.002;2023-03-01T16:11:52;6.43;;;4.40;;
25950;SDS011;13748;52.240;6.002;2023-03-01T16:14:20;7.50;;;4.83;;
25950;SDS011;13748;52.240;6.002;2023-03-01T16:16:47;6.57;;;4.73;;
25950;SDS011;13748;52.240;6.002;2023-03-01T16:19:14;6.90;;;4.47;;
25950;SDS011;13748;52.240;6.002;2023-03-01T16:21:42;9.67;;;5.40;;
25950;SDS011;13748;52.240;6.002;2023-03-01T16:24:09;22.07;;;6.40;;
25950;SDS011;13748;52.240;6.002;2023-03-01T16:26:36;6.57;;;4.53;;
25950;SDS011;13748;52.240;6.002;2023-03-01T16:29:04;8.60;;;5.80;;
25950;SDS011;13748;52.240;6.002;2023-03-01T16:31:31;7.60;;;5.20;;
25950;SDS011;13748;52.240;6.002;2023-03-01T16:33:59;7.13;;;4.63;;
25950;SDS011;13748;52.240;6.002;2023-03-01T16:36:26;6.93;;;5.33;;
25950;SDS011;13748;52.240;6.002;2023-03-01T16:38:55;7.63;;;5.00;;
25950;SDS011;13748;52.240;6.002;2023-03-01T16:41:24;7.60;;;5.30;;
25950;SDS011;13748;52.240;6.002;2023-03-01T16:43:51;7.13;;;5.10;;
25950;SDS011;13748;52.240;6.002;2023-03-01T16:46:19;8.63;;;5.47;;
25950;SDS011;13748;52.240;6.002;2023-03-01T16:48:54;6.30;;;4.60;;
25950;SDS011;13748;52.240;6.002;2023-03-01T16:51:21;8.00;;;5.13;;
25950;SDS011;13748;52.240;6.002;2023-03-01T16:53:49;7.80;;;5.30;;
25950;SDS011;13748;52.240;6.002;2023-03-01T16:56:17;9.17;;;6.07;;
25950;SDS011;13748;52.240;6.002;2023-03-01T16:58:45;8.57;;;5.70;;
25950;SDS011;13748;52.240;6.002;2023-03-01T17:01:13;8.20;;;6.00;;
25950;SDS011;13748;52.240;6.002;2023-03-01T17:03:42;8.53;;;5.53;;
25950;SDS011;13748;52.240;6.002;2023-03-01T17:06:11;8.47;;;5.97;;
25950;SDS011;13748;52.240;6.002;2023-03-01T17:08:39;8.20;;;5.60;;